sensor_id;sensor_type;location;lat;lon;timestamp;pressure;altitude;pressure_sealevel;temperature;humidity
37694;BME280;23531;50.122;8.644;2022-10-26T00:00:21;100560.28;;;13.79;nan
37694;BME280;23531;50.122;8.644;2022-10-26T00:02:22;100560.06;;;13.81;nan
37694;BME280;23531;50.122;8.644;2022-10-26T00:04:24;100564.66;;;13.80;nan
37694;BME280;23531;50.122;8.644;2022-10-26T00:06:27;100557.91;;;13.71;nan
37694;BME280;23531;50.122;8.644;2022-10-26T00:08:29;100558.13;;;13.70;nan
37694;BME280;23531;50.122;8.644;2022-10-26T00:10:32;100555.38;;;13.76;nan
37694;BME280;23531;50.122;8.644;2022-10-26T00:12:34;100551.34;;;13.79;nan
37694;BME280;23531;50.122;8.644;2022-10-26T00:14:35;100550.31;;;13.80;nan
37694;BME280;23531;50.122;8.644;2022-10-26T00:16:37;100559.84;;;13.82;nan
37694;BME280;23531;50.122;8.644;2022-10-26T00:18:38;100552.34;;;13.85;nan
37694;BME280;23531;50.122;8.644;2022-10-26T00:20:40;100553.63;;;13.82;nan
37694;BME280;23531;50.122;8.644;2022-10-26T00:22:44;100555.28;;;13.83;nan
37694;BME280;23531;50.122;8.644;2022-10-26T00:24:45;100557.38;;;13.81;nan
37694;BME280;23531;50.122;8.644;2022-10-26T00:26:47;100557.81;;;13.78;nan
37694;BME280;23531;50.122;8.644;2022-10-26T00:28:48;100567.28;;;13.69;nan
37694;BME280;23531;50.122;8.644;2022-10-26T00:30:49;100561.66;;;13.70;nan
37694;BME280;23531;50.122;8.644;2022-10-26T00:32:51;100572.38;;;13.77;nan
37694;BME280;23531;50.122;8.644;2022-10-26T00:34:53;100559.47;;;13.79;nan
37694;BME280;23531;50.122;8.644;2022-10-26T00:36:54;100554.53;;;13.76;nan
37694;BME280;23531;50.122;8.644;2022-10-26T00:38:57;100557.91;;;13.71;nan
37694;BME280;23531;50.122;8.644;2022-10-26T00:40:58;100561.13;;;13.80;nan
37694;BME280;23531;50.122;8.644;2022-10-26T00:43:00;100554.53;;;13.76;nan
37694;BME280;23531;50.122;8.644;2022-10-26T00:45:04;100561.00;;;13.75;nan
37694;BME280;23531;50.122;8.644;2022-10-26T00:47:08;100556.03;;;13.72;nan
37694;BME280;23531;50.122;8.644;2022-10-26T00:49:13;100554.59;;;13.69;nan
37694;BME280;23531;50.122;8.644;2022-10-26T00:51:22;100555.44;;;13.70;nan
37694;BME280;23531;50.122;8.644;2022-10-26T00:53:25;100559.13;;;13.75;nan
37694;BME280;23531;50.122;8.644;2022-10-26T00:55:30;100557.00;;;13.77;nan
37694;BME280;23531;50.122;8.644;2022-10-26T00:57:34;100554.97;;;13.73;nan
37694;BME280;23531;50.122;8.644;2022-10-26T00:59:37;100558.75;;;13.72;nan
37694;BME280;23531;50.122;8.644;2022-10-26T01:01:42;100556.03;;;13.72;nan
37694;BME280;23531;50.122;8.644;2022-10-26T01:03:44;100557.09;;;13.71;nan
37694;BME280;23531;50.122;8.644;2022-10-26T01:05:47;100554.97;;;13.73;nan
37694;BME280;23531;50.122;8.644;2022-10-26T01:07:50;100555.88;;;13.67;nan
37694;BME280;23531;50.122;8.644;2022-10-26T01:09:52;100553.44;;;13.65;nan
37694;BME280;23531;50.122;8.644;2022-10-26T01:11:56;100560.22;;;13.68;nan
37694;BME280;23531;50.122;8.644;2022-10-26T01:13:59;100543.41;;;13.66;nan
37694;BME280;23531;50.122;8.644;2022-10-26T01:16:12;100542.69;;;13.59;nan
37694;BME280;23531;50.122;8.644;2022-10-26T01:18:21;100540.59;;;13.61;nan
37694;BME280;23531;50.122;8.644;2022-10-26T01:20:41;100548.25;;;13.64;nan
37694;BME280;23531;50.122;8.644;2022-10-26T01:22:50;100542.03;;;13.63;nan
37694;BME280;23531;50.122;8.644;2022-10-26T01:25:05;100550.56;;;13.60;nan
37694;BME280;23531;50.122;8.644;2022-10-26T01:31:40;100541.47;;;13.55;nan
37694;BME280;23531;50.122;8.644;2022-10-26T01:33:46;100539.38;;;13.57;nan
37694;BME280;23531;50.122;8.644;2022-10-26T01:35:54;100533.53;;;13.60;nan
37694;BME280;23531;50.122;8.644;2022-10-26T01:38:05;100547.09;;;13.71;nan
37694;BME280;23531;50.122;8.644;2022-10-26T01:40:14;100540.19;;;13.75;nan
37694;BME280;23531;50.122;8.644;2022-10-26T01:42:17;100544.19;;;13.73;nan
37694;BME280;23531;50.122;8.644;2022-10-26T01:44:23;100544.41;;;13.71;nan
37694;BME280;23531;50.122;8.644;2022-10-26T01:46:28;100542.97;;;13.69;nan
37694;BME280;23531;50.122;8.644;2022-10-26T01:48:33;100530.97;;;13.65;nan
37694;BME280;23531;50.122;8.644;2022-10-26T01:50:36;100531.81;;;13.65;nan
37694;BME280;23531;50.122;8.644;2022-10-26T01:52:38;100534.06;;;13.50;nan
37694;BME280;23531;50.122;8.644;2022-10-26T01:54:40;100531.97;;;13.52;nan
37694;BME280;23531;50.122;8.644;2022-10-26T01:56:43;100537.16;;;13.54;nan
37694;BME280;23531;50.122;8.644;2022-10-26T01:59:05;100538.78;;;13.55;nan
37694;BME280;23531;50.122;8.644;2022-10-26T02:01:20;100527.91;;;13.61;nan
37694;BME280;23531;50.122;8.644;2022-10-26T02:03:29;100525.75;;;13.33;nan
37694;BME280;23531;50.122;8.644;2022-10-26T02:05:46;100509.66;;;13.02;nan
37694;BME280;23531;50.122;8.644;2022-10-26T02:07:55;100526.66;;;13.02;nan
37694;BME280;23531;50.122;8.644;2022-10-26T02:10:07;100533.25;;;13.31;nan
37694;BME280;23531;50.122;8.644;2022-10-26T02:12:21;100533.41;;;13.36;nan
37694;BME280;23531;50.122;8.644;2022-10-26T02:14:30;100516.28;;;13.24;nan
37694;BME280;23531;50.122;8.644;2022-10-26T02:16:38;100512.13;;;13.03;nan
37694;BME280;23531;50.122;8.644;2022-10-26T02:18:42;100519.56;;;13.08;nan
37694;BME280;23531;50.122;8.644;2022-10-26T02:20:49;100519.06;;;13.18;nan
37694;BME280;23531;50.122;8.644;2022-10-26T02:22:53;100519.28;;;13.34;nan
37694;BME280;23531;50.122;8.644;2022-10-26T02:24:58;100520.41;;;13.45;nan
37694;BME280;23531;50.122;8.644;2022-10-26T02:27:03;100522.16;;;13.39;nan
37694;BME280;23531;50.122;8.644;2022-10-26T02:29:10;100506.69;;;13.47;nan
37694;BME280;23531;50.122;8.644;2022-10-26T02:31:14;100518.09;;;13.49;nan
37694;BME280;23531;50.122;8.644;2022-10-26T02:33:18;100506.38;;;13.36;nan
37694;BME280;23531;50.122;8.644;2022-10-26T02:35:23;100502.94;;;13.48;nan
37694;BME280;23531;50.122;8.644;2022-10-26T02:37:28;100505.56;;;13.54;nan
37694;BME280;23531;50.122;8.644;2022-10-26T02:39:32;100504.88;;;13.59;nan
37694;BME280;23531;50.122;8.644;2022-10-26T02:41:35;100504.97;;;13.52;nan
37694;BME280;23531;50.122;8.644;2022-10-26T02:43:44;100505.78;;;13.53;nan
37694;BME280;23531;50.122;8.644;2022-10-26T02:45:51;100507.78;;;13.57;nan
37694;BME280;23531;50.122;8.644;2022-10-26T02:47:54;100503.66;;;13.55;nan
37694;BME280;23531;50.122;8.644;2022-10-26T02:49:56;100493.94;;;13.54;nan
37694;BME280;23531;50.122;8.644;2022-10-26T02:52:02;100491.34;;;13.59;nan
37694;BME280;23531;50.122;8.644;2022-10-26T02:54:13;100497.47;;;13.54;nan
37694;BME280;23531;50.122;8.644;2022-10-26T02:56:19;100499.06;;;13.55;nan
37694;BME280;23531;50.122;8.644;2022-10-26T02:58:24;100512.06;;;13.65;nan
37694;BME280;23531;50.122;8.644;2022-10-26T03:00:28;100504.56;;;13.49;nan
37694;BME280;23531;50.122;8.644;2022-10-26T03:02:30;100493.16;;;13.65;nan
37694;BME280;23531;50.122;8.644;2022-10-26T03:04:33;100487.38;;;13.61;nan
37694;BME280;23531;50.122;8.644;2022-10-26T03:06:35;100488.88;;;13.57;nan
37694;BME280;23531;50.122;8.644;2022-10-26T03:08:36;100484.91;;;13.60;nan
37694;BME280;23531;50.122;8.644;2022-10-26T03:10:41;100492.78;;;13.61;nan
37694;BME280;23531;50.122;8.644;2022-10-26T03:12:43;100488.28;;;13.55;nan
37694;BME280;23531;50.122;8.644;2022-10-26T03:14:44;100483.78;;;13.49;nan
37694;BME280;23531;50.122;8.644;2022-10-26T03:16:46;100483.13;;;13.54;nan
37694;BME280;23531;50.122;8.644;2022-10-26T03:18:47;100487.69;;;13.53;nan
37694;BME280;23531;50.122;8.644;2022-10-26T03:20:49;100490.16;;;13.55;nan
37694;BME280;23531;50.122;8.644;2022-10-26T03:22:50;100492.41;;;13.58;nan
37694;BME280;23531;50.122;8.644;2022-10-26T03:24:51;100491.97;;;13.61;nan
37694;BME280;23531;50.122;8.644;2022-10-26T03:26:54;100498.56;;;13.65;nan
37694;BME280;23531;50.122;8.644;2022-10-26T03:28:56;100504.09;;;13.70;nan
37694;BME280;23531;50.122;8.644;2022-10-26T03:30:57;100495.59;;;13.66;nan
37694;BME280;23531;50.122;8.644;2022-10-26T03:32:59;100499.63;;;13.64;nan
37694;BME280;23531;50.122;8.644;2022-10-26T03:35:00;100499.00;;;13.62;nan
37694;BME280;23531;50.122;8.644;2022-10-26T03:37:01;100500.19;;;13.66;nan
37694;BME280;23531;50.122;8.644;2022-10-26T03:39:03;100510.19;;;13.65;nan
37694;BME280;23531;50.122;8.644;2022-10-26T03:41:04;100509.50;;;13.70;nan
37694;BME280;23531;50.122;8.644;2022-10-26T03:43:07;100503.66;;;13.73;nan
37694;BME280;23531;50.122;8.644;2022-10-26T03:45:09;100506.56;;;13.71;nan
37694;BME280;23531;50.122;8.644;2022-10-26T03:47:10;100507.16;;;13.73;nan
37694;BME280;23531;50.122;8.644;2022-10-26T03:49:12;100500.94;;;13.73;nan
37694;BME280;23531;50.122;8.644;2022-10-26T03:51:13;100500.94;;;13.73;nan
37694;BME280;23531;50.122;8.644;2022-10-26T03:53:15;100499.28;;;13.72;nan
37694;BME280;23531;50.122;8.644;2022-10-26T03:55:16;100502.59;;;13.74;nan
37694;BME280;23531;50.122;8.644;2022-10-26T03:57:18;100499.06;;;13.73;nan
37694;BME280;23531;50.122;8.644;2022-10-26T03:59:21;100499.28;;;13.72;nan
37694;BME280;23531;50.122;8.644;2022-10-26T04:01:22;100498.91;;;13.68;nan
37694;BME280;23531;50.122;8.644;2022-10-26T04:03:24;100488.19;;;13.62;nan
37694;BME280;23531;50.122;8.644;2022-10-26T04:05:27;100489.03;;;13.62;nan
37694;BME280;23531;50.122;8.644;2022-10-26T04:07:29;100497.34;;;13.61;nan
37694;BME280;23531;50.122;8.644;2022-10-26T04:09:30;100488.66;;;13.59;nan
37694;BME280;23531;50.122;8.644;2022-10-26T04:11:32;100489.94;;;13.56;nan
37694;BME280;23531;50.122;8.644;2022-10-26T04:13:33;100479.94;;;13.57;nan
37694;BME280;23531;50.122;8.644;2022-10-26T04:15:36;100485.34;;;13.57;nan
37694;BME280;23531;50.122;8.644;2022-10-26T04:17:38;100487.69;;;13.53;nan
37694;BME280;23531;50.122;8.644;2022-10-26T04:19:39;100486.19;;;13.57;nan
37694;BME280;23531;50.122;8.644;2022-10-26T04:21:42;100489.94;;;13.56;nan
37694;BME280;23531;50.122;8.644;2022-10-26T04:23:44;100495.56;;;13.55;nan
37694;BME280;23531;50.122;8.644;2022-10-26T04:25:45;100494.75;;;13.54;nan
37694;BME280;23531;50.122;8.644;2022-10-26T04:27:47;100498.03;;;13.56;nan
37694;BME280;23531;50.122;8.644;2022-10-26T04:29:48;100494.22;;;13.64;nan
37694;BME280;23531;50.122;8.644;2022-10-26T04:31:51;100496.91;;;13.64;nan
37694;BME280;23531;50.122;8.644;2022-10-26T04:33:52;100500.19;;;13.66;nan
37694;BME280;23531;50.122;8.644;2022-10-26T04:35:57;100505.91;;;13.58;nan
37694;BME280;23531;50.122;8.644;2022-10-26T04:38:00;100504.25;;;13.57;nan
37694;BME280;23531;50.122;8.644;2022-10-26T04:40:02;100503.66;;;13.55;nan
37694;BME280;23531;50.122;8.644;2022-10-26T04:42:03;100507.78;;;13.57;nan
37694;BME280;23531;50.122;8.644;2022-10-26T04:44:05;100506.97;;;13.57;nan
37694;BME280;23531;50.122;8.644;2022-10-26T04:46:06;100503.22;;;13.58;nan
37694;BME280;23531;50.122;8.644;2022-10-26T04:48:10;100489.69;;;13.58;nan
37694;BME280;23531;50.122;8.644;2022-10-26T04:50:13;100497.81;;;13.58;nan
37694;BME280;23531;50.122;8.644;2022-10-26T04:52:14;100493.44;;;13.57;nan
37694;BME280;23531;50.122;8.644;2022-10-26T04:54:16;100494.16;;;13.52;nan
37694;BME280;23531;50.122;8.644;2022-10-26T04:56:17;100483.56;;;13.51;nan
37694;BME280;23531;50.122;8.644;2022-10-26T04:58:19;100485.59;;;13.37;nan
37694;BME280;23531;50.122;8.644;2022-10-26T05:00:20;100492.66;;;13.38;nan
37694;BME280;23531;50.122;8.644;2022-10-26T05:02:21;100488.47;;;13.42;nan
37694;BME280;23531;50.122;8.644;2022-10-26T05:04:24;100491.69;;;13.51;nan
37694;BME280;23531;50.122;8.644;2022-10-26T05:06:26;100481.47;;;13.53;nan
37694;BME280;23531;50.122;8.644;2022-10-26T05:08:27;100469.69;;;13.47;nan
37694;BME280;23531;50.122;8.644;2022-10-26T05:10:29;100471.66;;;13.40;nan
37694;BME280;23531;50.122;8.644;2022-10-26T05:12:31;100469.41;;;13.37;nan
37694;BME280;23531;50.122;8.644;2022-10-26T05:14:32;100471.88;;;13.38;nan
37694;BME280;23531;50.122;8.644;2022-10-26T05:16:34;100470.06;;;13.32;nan
37694;BME280;23531;50.122;8.644;2022-10-26T05:18:35;100471.50;;;13.35;nan
37694;BME280;23531;50.122;8.644;2022-10-26T05:20:38;100475.78;;;13.42;nan
37694;BME280;23531;50.122;8.644;2022-10-26T05:22:39;100481.19;;;13.42;nan
37694;BME280;23531;50.122;8.644;2022-10-26T05:24:41;100477.41;;;13.43;nan
37694;BME280;23531;50.122;8.644;2022-10-26T05:26:42;100481.31;;;13.48;nan
37694;BME280;23531;50.122;8.644;2022-10-26T05:28:44;100482.03;;;13.55;nan
37694;BME280;23531;50.122;8.644;2022-10-26T05:30:45;100484.19;;;13.53;nan
37694;BME280;23531;50.122;8.644;2022-10-26T05:32:52;100482.75;;;13.50;nan
37694;BME280;23531;50.122;8.644;2022-10-26T05:34:54;100486.88;;;13.53;nan
37694;BME280;23531;50.122;8.644;2022-10-26T05:36:56;100484.28;;;13.58;nan
37694;BME280;23531;50.122;8.644;2022-10-26T05:38:58;100482.03;;;13.55;nan
37694;BME280;23531;50.122;8.644;2022-10-26T05:41:00;100492.84;;;13.55;nan
37694;BME280;23531;50.122;8.644;2022-10-26T05:43:02;100498.72;;;13.52;nan
37694;BME280;23531;50.122;8.644;2022-10-26T05:45:04;100497.47;;;13.54;nan
37694;BME280;23531;50.122;8.644;2022-10-26T05:47:06;100504.25;;;13.57;nan
37694;BME280;23531;50.122;8.644;2022-10-26T05:49:07;100490.75;;;13.57;nan
37694;BME280;23531;50.122;8.644;2022-10-26T05:51:09;100499.34;;;13.54;nan
37694;BME280;23531;50.122;8.644;2022-10-26T05:53:13;100497.81;;;13.58;nan
37694;BME280;23531;50.122;8.644;2022-10-26T05:55:16;100498.50;;;13.53;nan
37694;BME280;23531;50.122;8.644;2022-10-26T05:57:18;100511.41;;;13.51;nan
37694;BME280;23531;50.122;8.644;2022-10-26T05:59:20;100506.84;;;13.52;nan
37694;BME280;23531;50.122;8.644;2022-10-26T06:01:28;100507.19;;;13.55;nan
37694;BME280;23531;50.122;8.644;2022-10-26T06:03:41;100506.34;;;13.55;nan
37694;BME280;23531;50.122;8.644;2022-10-26T06:05:50;100506.63;;;13.53;nan
37694;BME280;23531;50.122;8.644;2022-10-26T06:07:53;100505.31;;;13.56;nan
37694;BME280;23531;50.122;8.644;2022-10-26T06:09:56;100510.13;;;13.54;nan
37694;BME280;23531;50.122;8.644;2022-10-26T06:11:58;100512.84;;;13.54;nan
37694;BME280;23531;50.122;8.644;2022-10-26T06:14:01;100511.19;;;13.53;nan
37694;BME280;23531;50.122;8.644;2022-10-26T06:16:11;100509.75;;;13.32;nan
37694;BME280;23531;50.122;8.644;2022-10-26T06:18:24;100507.44;;;13.35;nan
37694;BME280;23531;50.122;8.644;2022-10-26T06:20:44;100502.53;;;13.44;nan
37694;BME280;23531;50.122;8.644;2022-10-26T06:22:59;100510.59;;;13.51;nan
37694;BME280;23531;50.122;8.644;2022-10-26T06:25:17;100524.81;;;13.58;nan
37694;BME280;23531;50.122;8.644;2022-10-26T06:27:27;100519.19;;;13.59;nan
37694;BME280;23531;50.122;8.644;2022-10-26T06:29:40;100529.06;;;13.54;nan
37694;BME280;23531;50.122;8.644;2022-10-26T06:31:44;100531.88;;;13.59;nan
37694;BME280;23531;50.122;8.644;2022-10-26T06:33:47;100538.34;;;13.58;nan
37694;BME280;23531;50.122;8.644;2022-10-26T06:35:54;100531.81;;;13.65;nan
37694;BME280;23531;50.122;8.644;2022-10-26T06:38:03;100541.31;;;13.68;nan
37694;BME280;23531;50.122;8.644;2022-10-26T06:40:06;100553.44;;;13.65;nan
37694;BME280;23531;50.122;8.644;2022-10-26T06:42:09;100554.22;;;13.66;nan
37694;BME280;23531;50.122;8.644;2022-10-26T06:44:20;100557.69;;;13.73;nan
37694;BME280;23531;50.122;8.644;2022-10-26T06:46:28;100568.56;;;13.66;nan
37694;BME280;23531;50.122;8.644;2022-10-26T06:48:35;100568.81;;;13.65;nan
37694;BME280;23531;50.122;8.644;2022-10-26T06:50:48;100568.81;;;13.65;nan
37694;BME280;23531;50.122;8.644;2022-10-26T06:52:59;100574.22;;;13.65;nan
37694;BME280;23531;50.122;8.644;2022-10-26T06:55:06;100572.09;;;13.67;nan
37694;BME280;23531;50.122;8.644;2022-10-26T06:57:12;100576.59;;;13.73;nan
37694;BME280;23531;50.122;8.644;2022-10-26T06:59:17;100579.91;;;13.75;nan
37694;BME280;23531;50.122;8.644;2022-10-26T07:01:22;100585.44;;;13.80;nan
37694;BME280;23531;50.122;8.644;2022-10-26T07:03:23;100587.69;;;13.83;nan
37694;BME280;23531;50.122;8.644;2022-10-26T07:05:25;100590.03;;;13.79;nan
37694;BME280;23531;50.122;8.644;2022-10-26T07:07:28;100584.78;;;13.85;nan
37694;BME280;23531;50.122;8.644;2022-10-26T07:09:31;100590.34;;;13.71;nan
37694;BME280;23531;50.122;8.644;2022-10-26T07:11:32;100586.38;;;13.74;nan
37694;BME280;23531;50.122;8.644;2022-10-26T07:13:35;100590.63;;;13.81;nan
37694;BME280;23531;50.122;8.644;2022-10-26T07:15:37;100592.28;;;13.82;nan
37694;BME280;23531;50.122;8.644;2022-10-26T07:17:42;100594.53;;;13.86;nan
37694;BME280;23531;50.122;8.644;2022-10-26T07:19:44;100596.63;;;13.84;nan
37694;BME280;23531;50.122;8.644;2022-10-26T07:21:46;100586.66;;;13.84;nan
37694;BME280;23531;50.122;8.644;2022-10-26T07:23:47;100591.00;;;13.85;nan
37694;BME280;23531;50.122;8.644;2022-10-26T07:25:49;100591.69;;;13.80;nan
37694;BME280;23531;50.122;8.644;2022-10-26T07:27:50;100590.72;;;13.75;nan
37694;BME280;23531;50.122;8.644;2022-10-26T07:29:53;100595.53;;;13.73;nan
37694;BME280;23531;50.122;8.644;2022-10-26T07:31:55;100592.44;;;13.69;nan
37694;BME280;23531;50.122;8.644;2022-10-26T07:33:56;100596.47;;;13.78;nan
37694;BME280;23531;50.122;8.644;2022-10-26T07:35:58;100603.47;;;13.86;nan
37694;BME280;23531;50.122;8.644;2022-10-26T07:38:02;100611.72;;;13.91;nan
37694;BME280;23531;50.122;8.644;2022-10-26T07:40:04;100620.88;;;13.90;nan
37694;BME280;23531;50.122;8.644;2022-10-26T07:42:06;100626.56;;;14.00;nan
37694;BME280;23531;50.122;8.644;2022-10-26T07:44:08;100627.16;;;14.02;nan
37694;BME280;23531;50.122;8.644;2022-10-26T07:46:11;100625.28;;;14.03;nan
37694;BME280;23531;50.122;8.644;2022-10-26T07:48:12;100636.47;;;14.06;nan
37694;BME280;23531;50.122;8.644;2022-10-26T07:50:14;100644.72;;;14.11;nan
37694;BME280;23531;50.122;8.644;2022-10-26T07:52:16;100647.81;;;14.15;nan
37694;BME280;23531;50.122;8.644;2022-10-26T07:54:17;100641.72;;;14.20;nan
37694;BME280;23531;50.122;8.644;2022-10-26T07:56:18;100641.50;;;14.21;nan
37694;BME280;23531;50.122;8.644;2022-10-26T07:58:20;100647.72;;;14.22;nan
37694;BME280;23531;50.122;8.644;2022-10-26T08:00:23;100643.13;;;14.22;nan
37694;BME280;23531;50.122;8.644;2022-10-26T08:02:26;100644.78;;;14.23;nan
37694;BME280;23531;50.122;8.644;2022-10-26T08:04:27;100638.69;;;14.28;nan
37694;BME280;23531;50.122;8.644;2022-10-26T08:06:29;100638.03;;;14.32;nan
37694;BME280;23531;50.122;8.644;2022-10-26T08:08:30;100646.47;;;14.36;nan
37694;BME280;23531;50.122;8.644;2022-10-26T08:10:32;100645.66;;;14.35;nan
37694;BME280;23531;50.122;8.644;2022-10-26T08:12:33;100641.91;;;14.36;nan
37694;BME280;23531;50.122;8.644;2022-10-26T08:14:35;100641.47;;;14.39;nan
37694;BME280;23531;50.122;8.644;2022-10-26T08:16:36;100645.59;;;14.42;nan
37694;BME280;23531;50.122;8.644;2022-10-26T08:18:40;100640.19;;;14.42;nan
37694;BME280;23531;50.122;8.644;2022-10-26T08:20:42;100645.13;;;14.45;nan
37694;BME280;23531;50.122;8.644;2022-10-26T08:22:43;100639.72;;;14.45;nan
37694;BME280;23531;50.122;8.644;2022-10-26T08:24:45;100647.97;;;14.50;nan
37694;BME280;23531;50.122;8.644;2022-10-26T08:26:46;100646.78;;;14.46;nan
37694;BME280;23531;50.122;8.644;2022-10-26T08:28:48;100638.91;;;14.44;nan
37694;BME280;23531;50.122;8.644;2022-10-26T08:30:49;100642.34;;;14.51;nan
37694;BME280;23531;50.122;8.644;2022-10-26T08:32:57;100647.78;;;14.63;nan
37694;BME280;23531;50.122;8.644;2022-10-26T08:35:00;100642.28;;;14.70;nan
37694;BME280;23531;50.122;8.644;2022-10-26T08:37:01;100650.06;;;14.78;nan
37694;BME280;23531;50.122;8.644;2022-10-26T08:39:03;100644.19;;;14.81;nan
37694;BME280;23531;50.122;8.644;2022-10-26T08:41:06;100640.78;;;14.85;nan
37694;BME280;23531;50.122;8.644;2022-10-26T08:43:13;100638.91;;;14.86;nan
37694;BME280;23531;50.122;8.644;2022-10-26T08:45:23;100633.25;;;14.87;nan
37694;BME280;23531;50.122;8.644;2022-10-26T08:47:28;100641.50;;;14.93;nan
37694;BME280;23531;50.122;8.644;2022-10-26T08:49:38;100636.81;;;15.00;nan
37694;BME280;23531;50.122;8.644;2022-10-26T08:51:42;100642.94;;;15.07;nan
37694;BME280;23531;50.122;8.644;2022-10-26T08:53:49;100650.38;;;15.11;nan
37694;BME280;23531;50.122;8.644;2022-10-26T08:55:55;100644.94;;;15.11;nan
37694;BME280;23531;50.122;8.644;2022-10-26T08:58:00;100645.88;;;15.05;nan
37694;BME280;23531;50.122;8.644;2022-10-26T09:00:09;100652.25;;;15.11;nan
37694;BME280;23531;50.122;8.644;2022-10-26T09:02:12;100663.19;;;15.16;nan
37694;BME280;23531;50.122;8.644;2022-10-26T09:04:14;100659.41;;;15.17;nan
37694;BME280;23531;50.122;8.644;2022-10-26T09:06:20;100664.75;;;15.23;nan
37694;BME280;23531;50.122;8.644;2022-10-26T09:08:30;100662.50;;;15.20;nan
37694;BME280;23531;50.122;8.644;2022-10-26T09:10:38;100666.03;;;15.21;nan
37694;BME280;23531;50.122;8.644;2022-10-26T09:12:43;100662.38;;;15.27;nan
37694;BME280;23531;50.122;8.644;2022-10-26T09:14:57;100672.75;;;15.30;nan
37694;BME280;23531;50.122;8.644;2022-10-26T09:17:09;100668.97;;;15.31;nan
37694;BME280;23531;50.122;8.644;2022-10-26T09:19:26;100673.69;;;15.36;nan
37694;BME280;23531;50.122;8.644;2022-10-26T09:21:38;100669.09;;;15.36;nan
37694;BME280;23531;50.122;8.644;2022-10-26T09:23:54;100672.63;;;15.37;nan
37694;BME280;23531;50.122;8.644;2022-10-26T09:25:58;100675.00;;;15.33;nan
37694;BME280;23531;50.122;8.644;2022-10-26T09:28:01;100675.81;;;15.34;nan
37694;BME280;23531;50.122;8.644;2022-10-26T09:30:05;100684.19;;;15.32;nan
37694;BME280;23531;50.122;8.644;2022-10-26T09:32:16;100683.34;;;15.32;nan
37694;BME280;23531;50.122;8.644;2022-10-26T09:34:24;100691.03;;;15.35;nan
37694;BME280;23531;50.122;8.644;2022-10-26T09:36:27;100696.53;;;15.40;nan
37694;BME280;23531;50.122;8.644;2022-10-26T09:38:30;100698.56;;;15.44;nan
37694;BME280;23531;50.122;8.644;2022-10-26T09:40:38;100700.91;;;15.52;nan
37694;BME280;23531;50.122;8.644;2022-10-26T09:42:44;100699.84;;;15.53;nan
37694;BME280;23531;50.122;8.644;2022-10-26T09:44:52;100700.69;;;15.54;nan
37694;BME280;23531;50.122;8.644;2022-10-26T09:47:00;100702.56;;;15.53;nan
37694;BME280;23531;50.122;8.644;2022-10-26T09:51:07;100703.78;;;15.57;nan
37694;BME280;23531;50.122;8.644;2022-10-26T09:53:10;100698.38;;;15.57;nan
37694;BME280;23531;50.122;8.644;2022-10-26T09:55:12;100694.00;;;15.56;nan
37694;BME280;23531;50.122;8.644;2022-10-26T09:57:17;100696.81;;;15.61;nan
37694;BME280;23531;50.122;8.644;2022-10-26T09:59:21;100709.06;;;15.64;nan
37694;BME280;23531;50.122;8.644;2022-10-26T10:01:27;100706.97;;;15.66;nan
37694;BME280;23531;50.122;8.644;2022-10-26T10:03:32;100708.94;;;15.71;nan
37694;BME280;23531;50.122;8.644;2022-10-26T10:05:34;100711.78;;;15.76;nan
37694;BME280;23531;50.122;8.644;2022-10-26T10:07:35;100710.00;;;15.81;nan
37694;BME280;23531;50.122;8.644;2022-10-26T10:09:37;100712.22;;;15.84;nan
37694;BME280;23531;50.122;8.644;2022-10-26T10:11:39;100719.78;;;15.82;nan
37694;BME280;23531;50.122;8.644;2022-10-26T10:13:44;100716.25;;;15.82;nan
37694;BME280;23531;50.122;8.644;2022-10-26T10:15:53;100717.06;;;15.82;nan
37694;BME280;23531;50.122;8.644;2022-10-26T10:17:54;100710.34;;;15.85;nan
37694;BME280;23531;50.122;8.644;2022-10-26T10:20:06;100708.91;;;15.94;nan
37694;BME280;23531;50.122;8.644;2022-10-26T10:22:18;100713.88;;;15.97;nan
37694;BME280;23531;50.122;8.644;2022-10-26T10:24:24;100711.28;;;16.02;nan
37694;BME280;23531;50.122;8.644;2022-10-26T10:26:26;100721.63;;;16.05;nan
37694;BME280;23531;50.122;8.644;2022-10-26T10:28:27;100726.22;;;16.05;nan
37694;BME280;23531;50.122;8.644;2022-10-26T10:30:32;100732.00;;;16.08;nan
37694;BME280;23531;50.122;8.644;2022-10-26T10:32:33;100732.13;;;16.13;nan
37694;BME280;23531;50.122;8.644;2022-10-26T10:34:35;100737.66;;;16.18;nan
37694;BME280;23531;50.122;8.644;2022-10-26T10:36:38;100742.97;;;16.25;nan
37694;BME280;23531;50.122;8.644;2022-10-26T10:38:43;100739.50;;;16.29;nan
37694;BME280;23531;50.122;8.644;2022-10-26T10:40:49;100743.66;;;16.32;nan
37694;BME280;23531;50.122;8.644;2022-10-26T10:44:54;100746.81;;;16.41;nan
37694;BME280;23531;50.122;8.644;2022-10-26T10:47:03;100748.66;;;16.52;nan
37694;BME280;23531;50.122;8.644;2022-10-26T10:49:06;100757.75;;;16.57;nan
37694;BME280;23531;50.122;8.644;2022-10-26T10:51:18;100753.84;;;16.53;nan
37694;BME280;23531;50.122;8.644;2022-10-26T10:53:24;100744.88;;;16.53;nan
37694;BME280;23531;50.122;8.644;2022-10-26T10:55:27;100748.66;;;16.52;nan
37694;BME280;23531;50.122;8.644;2022-10-26T10:57:35;100747.34;;;16.54;nan
37694;BME280;23531;50.122;8.644;2022-10-26T10:59:44;100746.66;;;16.59;nan
37694;BME280;23531;50.122;8.644;2022-10-26T11:01:56;100745.00;;;16.58;nan
37694;BME280;23531;50.122;8.644;2022-10-26T11:04:25;100759.13;;;16.60;nan
37694;BME280;23531;50.122;8.644;2022-10-26T11:06:35;100757.97;;;16.67;nan
37694;BME280;23531;50.122;8.644;2022-10-26T11:08:43;100769.66;;;16.68;nan
37694;BME280;23531;50.122;8.644;2022-10-26T11:10:49;100769.16;;;16.71;nan
37694;BME280;23531;50.122;8.644;2022-10-26T11:12:55;100757.94;;;16.79;nan
37694;BME280;23531;50.122;8.644;2022-10-26T11:15:00;100761.88;;;16.88;nan